タシュケント の空港の天気 - METARとTAF

タシケント空港 ( UTTT / TAS ) - ウズベキスタン タシュケント
飛行場実況気象(Metar)
観測時間07/29 06:30 UZT (07/29 01:30 UTC)
風向・風速南南東 3m/s
視程10km以上
天気現象
なし
気温23℃
湿度44%
気圧1004hPa
METARUTTT 290130Z 15006KT CAVOK 23/10 Q1004 R08R/CLRD70 NOSIG
過去の天気等 Google飛行場航空写真 Wunderground天気予報

過去48時間のMETAR

飛行場予報(TAF)
発表時間: 7/29 04:00 UZT (7/28 23:00 UTC)
予報対象時間: 29日5時 UZT ~ 30日5時 UZT
風向・風速東 5m/s
視程7000m
なし
29日13時 UZT ~ 29日23時 UZT に一時的に
風向・風速西南西 8m/s 瞬間風速 13m/s
少しの積乱雲 雲底高度 1830m
全天の4割程度の雲 雲底高度 3050m
29日13時 UZT ~ 29日23時 UZT に 確率 40% で一時的に
天気現象
全天の4割程度の積乱雲 雲底高度 1830m
TAF UTTT 282300Z 2900/2924 09010KT 7000 NSC TX37/2910Z
TEMPO 2908/2918 24015G25KT FEW060CB SCT100
PROB40 TEMPO 2908/2918 TS SCT060CB